Terminal Aerodrome Forecast
Issued by NWS

Home | Current Version | Previous Version | Graphics & Text | Print | Product List | Glossary On
Versions: 1 2 3 4 5 6 7 8 9 10 11 12 13 14
000
FTUS43 KLSX 230500 AAA
TAFSUS
TAF AMD
KSUS 230556Z 2306/2406 00000KT 5SM BR SCT250
      TEMPO 2306/2310 1SM BR
     FM231400 18006KT P6SM SCT120 BKN250
     FM240000 VRB03KT P6SM SCT060=

USA.gov is the U.S. government's official web portal to all federal, state and local government web resources and services.